Time;durP1;ratioP1;P1;durP2;ratioP2;P2;SDS_P1;SDS_P2;PMS_P1;PMS_P2;Temp;Humidity;BMP_temperature;BMP_pressure;BME280_temperature;BME280_humidity;BME280_pressure;Samples;Min_cycle;Max_cycle;Signal;HPM_P1;HPM_P2
2021/06/24 00:02:17;;;;;;;7.95;4.50;;;12.50;91.70;;;;;;5053340;28;20060;-78
2021/06/24 00:04:43;;;;;;;8.52;4.28;;;12.20;92.00;;;;;;5053668;28;20052;-78
2021/06/24 00:07:09;;;;;;;5.72;3.90;;;12.30;92.20;;;;;;5053440;28;20053;-77
2021/06/24 00:09:36;;;;;;;7.25;3.38;;;12.40;92.20;;;;;;5054330;28;20503;-79
2021/06/24 00:12:03;;;;;;;7.85;3.42;;;12.50;92.20;;;;;;5053582;28;20064;-80
2021/06/24 00:14:29;;;;;;;9.38;3.53;;;12.50;92.00;;;;;;5056306;28;20055;-77
2021/06/24 00:16:55;;;;;;;7.82;3.08;;;12.70;92.00;;;;;;5058256;28;20052;-78
2021/06/24 00:19:22;;;;;;;6.30;3.20;;;12.70;92.10;;;;;;5057933;28;20048;-79
2021/06/24 00:21:48;;;;;;;6.70;3.15;;;12.80;92.00;;;;;;5057771;28;20319;-79
2021/06/24 00:24:14;;;;;;;8.80;3.58;;;13.00;91.90;;;;;;5058046;28;20493;-77
2021/06/24 00:26:40;;;;;;;3.85;2.03;;;12.90;91.90;;;;;;5057229;28;20049;-79
2021/06/24 00:29:06;;;;;;;10.30;3.53;;;13.00;91.50;;;;;;5057932;28;20469;-80
2021/06/24 00:31:33;;;;;;;5.85;3.30;;;13.10;91.50;;;;;;5056965;28;20079;-79
2021/06/24 00:33:59;;;;;;;8.10;3.50;;;13.10;91.50;;;;;;5058198;28;20056;-80
2021/06/24 00:36:26;;;;;;;4.32;3.08;;;13.10;91.60;;;;;;5057872;28;20068;-80
2021/06/24 00:38:52;;;;;;;5.75;2.83;;;13.10;91.70;;;;;;5058383;28;20048;-78
2021/06/24 00:41:19;;;;;;;4.65;2.80;;;13.20;91.70;;;;;;5058096;28;20041;-77
2021/06/24 00:43:45;;;;;;;6.22;3.50;;;13.20;91.20;;;;;;5058093;28;20445;-77
2021/06/24 00:46:11;;;;;;;7.60;2.72;;;13.30;91.40;;;;;;5057962;28;20336;-79
2021/06/24 00:48:38;;;;;;;10.07;3.88;;;13.30;91.50;;;;;;5057920;28;20041;-78
2021/06/24 00:51:06;;;;;;;6.70;3.20;;;13.30;91.30;;;;;;5057978;28;20477;-77
2021/06/24 00:53:34;;;;;;;8.02;3.90;;;13.40;91.40;;;;;;5058242;28;20342;-79
2021/06/24 00:56:03;;;;;;;8.55;3.10;;;13.40;91.40;;;;;;5057793;28;20048;-77
2021/06/24 00:58:29;;;;;;;6.20;3.67;;;13.40;91.40;;;;;;5057516;28;20045;-78
2021/06/24 01:00:58;;;;;;;5.55;3.40;;;13.40;91.50;;;;;;5057789;28;20049;-79
2021/06/24 01:03:24;;;;;;;6.00;3.30;;;13.50;91.70;;;;;;5058009;28;20415;-80
2021/06/24 01:05:51;;;;;;;6.38;2.88;;;13.40;91.60;;;;;;5057638;28;20036;-76
2021/06/24 01:08:20;;;;;;;5.15;3.10;;;13.40;91.50;;;;;;5057802;28;20044;-80
2021/06/24 01:10:47;;;;;;;5.50;3.17;;;13.50;91.60;;;;;;5055727;28;20056;-79
2021/06/24 01:13:14;;;;;;;7.07;3.13;;;13.40;91.50;;;;;;5056919;28;20075;-77
2021/06/24 01:15:42;;;;;;;7.85;3.17;;;13.50;91.40;;;;;;5056972;28;20049;-79
2021/06/24 01:18:08;;;;;;;6.80;3.20;;;13.50;91.50;;;;;;5057647;28;20052;-79
2021/06/24 01:20:36;;;;;;;10.05;3.50;;;13.60;91.50;;;;;;5057036;28;20052;-79
2021/06/24 01:23:04;;;;;;;7.25;3.58;;;13.60;91.60;;;;;;5057065;28;20057;-78
2021/06/24 01:25:31;;;;;;;7.30;3.30;;;13.60;91.60;;;;;;5056149;28;20053;-79
2021/06/24 01:27:59;;;;;;;7.65;3.95;;;13.50;91.50;;;;;;5056379;28;20053;-80
2021/06/24 01:30:27;;;;;;;7.10;3.15;;;13.50;91.40;;;;;;5056349;28;20056;-83
2021/06/24 01:32:54;;;;;;;6.03;3.03;;;13.60;91.50;;;;;;5057466;28;20044;-80
2021/06/24 01:35:22;;;;;;;6.63;3.60;;;13.60;91.50;;;;;;5056954;28;20048;-80
2021/06/24 01:37:54;;;;;;;8.40;3.65;;;13.60;91.50;;;;;;5056770;28;20067;-78
2021/06/24 01:40:20;;;;;;;8.00;3.50;;;13.60;91.50;;;;;;5056521;28;20339;-78
2021/06/24 01:42:46;;;;;;;6.65;3.42;;;13.60;91.50;;;;;;5056588;28;20426;-78
2021/06/24 01:45:13;;;;;;;6.03;3.15;;;13.60;91.40;;;;;;5056827;28;20419;-77
2021/06/24 01:47:39;;;;;;;6.70;3.60;;;13.60;91.40;;;;;;5056954;28;20049;-80
2021/06/24 01:50:10;;;;;;;3.92;2.80;;;13.60;91.40;;;;;;5059922;28;20342;-81
2021/06/24 01:52:41;;;;;;;8.75;3.40;;;13.60;91.20;;;;;;5061573;28;20061;-79
2021/06/24 01:55:09;;;;;;;6.55;3.40;;;13.70;91.10;;;;;;5055655;28;20056;-77
2021/06/24 01:57:36;;;;;;;7.15;3.38;;;13.60;91.30;;;;;;5055998;28;20049;-78
2021/06/24 02:00:11;;;;;;;9.27;3.38;;;13.60;91.20;;;;;;5056015;28;20049;-81
2021/06/24 02:02:38;;;;;;;5.95;2.78;;;13.70;91.30;;;;;;5055757;28;20053;-80
2021/06/24 02:05:07;;;;;;;7.75;3.22;;;13.70;91.20;;;;;;5055618;28;20148;-79
2021/06/24 02:07:37;;;;;;;8.95;2.90;;;13.70;91.10;;;;;;5055714;28;20049;-80
2021/06/24 02:10:04;;;;;;;9.38;3.30;;;13.70;91.20;;;;;;5055102;28;20056;-82
2021/06/24 02:12:30;;;;;;;4.20;2.72;;;13.70;91.20;;;;;;5055461;28;20053;-79
2021/06/24 02:14:56;;;;;;;5.80;2.17;;;13.70;91.00;;;;;;5055549;28;20060;-79
2021/06/24 02:17:22;;;;;;;8.43;3.30;;;13.80;90.50;;;;;;5055749;28;20048;-80
2021/06/24 02:19:49;;;;;;;7.28;3.08;;;13.90;90.60;;;;;;5055633;28;20049;-78
2021/06/24 02:22:16;;;;;;;7.65;3.55;;;13.80;90.80;;;;;;5055817;28;20049;-77
2021/06/24 02:24:42;;;;;;;7.78;2.60;;;13.80;91.00;;;;;;5055589;28;20338;-77
2021/06/24 02:27:09;;;;;;;7.55;3.40;;;14.00;91.00;;;;;;5055356;28;20068;-78
2021/06/24 02:29:35;;;;;;;8.88;3.70;;;14.00;91.10;;;;;;5055338;28;20136;-79
2021/06/24 02:32:01;;;;;;;6.55;2.95;;;13.90;91.00;;;;;;5054888;28;20071;-81
2021/06/24 02:34:28;;;;;;;6.25;2.30;;;13.80;90.90;;;;;;5055331;28;20044;-77
2021/06/24 02:36:55;;;;;;;4.47;2.53;;;13.90;90.60;;;;;;5053664;28;20060;-80
2021/06/24 02:39:22;;;;;;;5.22;3.13;;;13.90;90.40;;;;;;5055137;28;20064;-79
2021/06/24 02:41:48;;;;;;;4.35;2.20;;;13.90;90.50;;;;;;5054898;28;20055;-78
2021/06/24 02:44:15;;;;;;;6.50;2.67;;;13.90;90.40;;;;;;5054601;28;20056;-77
2021/06/24 02:46:41;;;;;;;9.20;3.55;;;13.90;90.70;;;;;;5054807;28;20048;-80
2021/06/24 02:49:07;;;;;;;10.18;4.30;;;13.90;90.70;;;;;;5054040;28;20064;-78
2021/06/24 02:51:34;;;;;;;5.35;2.03;;;13.90;90.70;;;;;;5054679;28;20045;-79
2021/06/24 02:54:00;;;;;;;6.15;2.70;;;14.00;90.40;;;;;;5054631;28;20052;-77
2021/06/24 02:56:26;;;;;;;6.28;3.42;;;14.00;90.10;;;;;;5055258;28;20059;-79
2021/06/24 02:58:52;;;;;;;7.07;3.10;;;13.90;90.50;;;;;;5054976;28;20045;-79
2021/06/24 03:01:19;;;;;;;3.63;2.67;;;14.00;90.60;;;;;;5055088;28;20539;-79
2021/06/24 03:03:45;;;;;;;7.63;3.00;;;14.00;90.70;;;;;;5054545;28;20057;-78
2021/06/24 03:06:11;;;;;;;5.72;2.50;;;13.90;90.80;;;;;;5054684;28;20060;-81
2021/06/24 03:08:37;;;;;;;7.43;3.25;;;13.90;90.90;;;;;;5054861;28;20052;-78
2021/06/24 03:11:04;;;;;;;6.75;2.35;;;13.90;90.80;;;;;;5054399;28;20057;-78
2021/06/24 03:13:30;;;;;;;6.35;2.72;;;13.90;90.80;;;;;;5053673;28;20049;-79
2021/06/24 03:15:56;;;;;;;6.00;2.25;;;13.90;90.70;;;;;;5053939;28;20708;-79
2021/06/24 03:18:23;;;;;;;7.30;2.60;;;13.90;90.70;;;;;;5054163;28;20053;-80
2021/06/24 03:20:49;;;;;;;6.10;2.20;;;13.90;90.90;;;;;;5054295;28;20060;-79
2021/06/24 03:23:15;;;;;;;4.22;2.33;;;13.80;90.90;;;;;;5054318;28;20075;-79
2021/06/24 03:25:41;;;;;;;4.72;1.60;;;13.90;90.60;;;;;;5054140;28;20059;-80
2021/06/24 03:28:08;;;;;;;4.45;2.13;;;13.90;90.50;;;;;;5053277;28;20056;-80
2021/06/24 03:30:34;;;;;;;7.82;2.00;;;13.90;90.50;;;;;;5053967;28;20053;-82
2021/06/24 03:33:00;;;;;;;5.53;2.08;;;13.90;90.60;;;;;;5054135;28;20052;-81
2021/06/24 03:35:27;;;;;;;3.15;1.52;;;13.90;90.70;;;;;;5053774;28;20362;-79
2021/06/24 03:37:53;;;;;;;8.90;2.65;;;14.00;90.00;;;;;;5054393;28;20071;-79
2021/06/24 03:40:20;;;;;;;5.00;2.20;;;14.00;90.30;;;;;;5054091;28;20068;-79
2021/06/24 03:42:47;;;;;;;6.32;2.20;;;14.00;90.70;;;;;;5054242;28;20338;-79
2021/06/24 03:45:14;;;;;;;4.45;2.20;;;14.10;90.50;;;;;;5054166;28;20060;-79
2021/06/24 03:47:41;;;;;;;4.25;2.40;;;14.00;90.40;;;;;;5053386;28;20044;-80
2021/06/24 03:50:09;;;;;;;6.43;2.50;;;14.00;90.40;;;;;;5054094;28;20057;-77
2021/06/24 03:52:35;;;;;;;10.32;2.97;;;14.10;90.50;;;;;;5054224;28;20052;-80
2021/06/24 03:55:03;;;;;;;10.63;2.97;;;14.00;90.30;;;;;;5053735;28;20052;-78
2021/06/24 03:57:30;;;;;;;6.05;2.10;;;14.10;90.20;;;;;;5053653;28;20048;-80
2021/06/24 03:59:58;;;;;;;6.50;2.03;;;14.10;90.10;;;;;;5053809;28;20053;-79
2021/06/24 04:02:24;;;;;;;6.55;2.45;;;14.10;90.10;;;;;;5054137;28;20059;-80
2021/06/24 04:04:51;;;;;;;3.17;1.98;;;14.20;90.10;;;;;;5054044;28;20064;-77
2021/06/24 04:07:17;;;;;;;5.55;2.70;;;14.10;90.10;;;;;;5053817;28;20045;-80
2021/06/24 04:09:43;;;;;;;6.15;2.70;;;14.10;90.00;;;;;;5053988;28;20053;-78
2021/06/24 04:12:10;;;;;;;4.35;2.20;;;14.00;90.20;;;;;;5053811;28;20044;-78
2021/06/24 04:14:36;;;;;;;7.45;2.80;;;14.00;90.20;;;;;;5053121;28;20048;-79
2021/06/24 04:17:04;;;;;;;6.50;2.45;;;14.10;90.30;;;;;;5054034;28;20049;-78
2021/06/24 04:19:30;;;;;;;5.22;2.50;;;14.10;90.50;;;;;;5053855;28;20048;-81
2021/06/24 04:21:56;;;;;;;5.95;2.50;;;14.30;90.50;;;;;;5053669;28;20056;-78
2021/06/24 04:24:22;;;;;;;5.90;2.80;;;14.10;90.40;;;;;;5053191;28;20056;-79
2021/06/24 04:26:49;;;;;;;4.45;2.15;;;14.10;90.30;;;;;;5054072;28;20037;-79
2021/06/24 04:29:15;;;;;;;7.63;3.10;;;14.10;90.10;;;;;;5053527;28;20045;-79
2021/06/24 04:31:41;;;;;;;8.98;2.88;;;14.10;90.10;;;;;;5053650;28;20056;-79
2021/06/24 04:34:08;;;;;;;3.92;3.05;;;14.10;90.10;;;;;;5054100;28;20066;-78
2021/06/24 04:36:35;;;;;;;8.68;2.90;;;14.10;90.30;;;;;;5053367;28;20430;-77
2021/06/24 04:39:02;;;;;;;6.90;2.63;;;14.50;90.40;;;;;;5052758;28;20061;-77
2021/06/24 04:41:31;;;;;;;7.65;3.72;;;14.10;90.10;;;;;;5053269;28;20056;-79
2021/06/24 04:43:58;;;;;;;7.05;2.85;;;14.20;90.00;;;;;;5053926;28;20045;-80
2021/06/24 04:46:24;;;;;;;4.15;2.55;;;14.20;89.90;;;;;;5053457;28;20053;-80
2021/06/24 04:48:50;;;;;;;7.38;3.13;;;14.30;89.60;;;;;;5053640;28;20045;-79
2021/06/24 04:51:16;;;;;;;5.30;3.15;;;14.40;89.60;;;;;;5052904;28;20494;-78
2021/06/24 04:53:42;;;;;;;5.40;3.30;;;14.40;89.40;;;;;;5053676;28;20064;-80
2021/06/24 04:56:09;;;;;;;6.68;4.13;;;14.40;89.20;;;;;;5053579;28;20057;-80
2021/06/24 04:58:36;;;;;;;6.85;4.00;;;14.50;88.90;;;;;;5053306;28;20056;-80
2021/06/24 05:01:02;;;;;;;7.03;4.30;;;14.60;89.00;;;;;;5056121;28;20052;-80
2021/06/24 05:03:28;;;;;;;4.38;2.97;;;14.60;89.30;;;;;;5057452;28;20055;-80
2021/06/24 05:05:55;;;;;;;7.18;4.93;;;14.70;89.00;;;;;;5056555;28;20053;-78
2021/06/24 05:08:23;;;;;;;7.47;4.90;;;14.70;88.70;;;;;;5057294;28;20433;-77
2021/06/24 05:10:49;;;;;;;6.10;3.95;;;14.70;88.80;;;;;;5056439;28;20052;-79
2021/06/24 05:13:16;;;;;;;7.80;5.40;;;15.00;88.80;;;;;;5056574;28;20053;-76
2021/06/24 05:15:44;;;;;;;6.28;2.83;;;14.80;89.00;;;;;;5057745;28;20048;-77
2021/06/24 05:18:11;;;;;;;8.77;4.05;;;14.80;88.20;;;;;;5057655;28;20045;-80
2021/06/24 05:20:39;;;;;;;7.07;3.15;;;14.70;87.70;;;;;;5057354;28;20044;-78
2021/06/24 05:23:07;;;;;;;7.35;2.60;;;14.80;88.40;;;;;;5056941;28;20055;-79
2021/06/24 05:25:33;;;;;;;6.03;2.60;;;14.80;87.10;;;;;;5056369;28;20441;-80
2021/06/24 05:27:59;;;;;;;5.82;2.40;;;14.90;86.80;;;;;;5056455;28;20045;-78
2021/06/24 05:30:26;;;;;;;8.10;2.22;;;15.00;87.00;;;;;;5056901;28;20064;-79
2021/06/24 05:32:52;;;;;;;4.20;2.20;;;15.00;86.70;;;;;;5056300;28;20059;-77
2021/06/24 05:35:19;;;;;;;5.18;1.80;;;15.00;87.00;;;;;;5056282;28;20057;-76
2021/06/24 05:37:45;;;;;;;5.55;2.13;;;15.10;86.60;;;;;;5056489;28;20045;-79
2021/06/24 05:40:12;;;;;;;4.28;1.80;;;15.10;86.80;;;;;;5056360;28;20342;-79
2021/06/24 05:42:38;;;;;;;6.63;1.60;;;15.20;86.50;;;;;;5056333;28;20116;-79
2021/06/24 05:45:06;;;;;;;5.40;1.98;;;15.20;86.00;;;;;;5056282;28;20041;-79
2021/06/24 05:47:33;;;;;;;5.70;1.88;;;15.30;86.20;;;;;;5055744;28;20040;-79
2021/06/24 05:50:03;;;;;;;12.13;2.22;;;15.20;85.90;;;;;;5056133;28;20045;-80
2021/06/24 05:52:30;;;;;;;3.75;1.83;;;15.20;85.80;;;;;;5056309;28;20049;-83
2021/06/24 05:54:56;;;;;;;6.55;1.33;;;15.30;86.30;;;;;;5055661;28;20044;-80
2021/06/24 05:57:22;;;;;;;3.97;1.88;;;15.30;85.50;;;;;;5055621;28;20049;-81
2021/06/24 05:59:48;;;;;;;4.05;1.38;;;15.30;85.20;;;;;;5057158;28;20418;-78
2021/06/24 06:02:15;;;;;;;4.35;1.40;;;15.40;85.10;;;;;;5056264;28;20338;-79
2021/06/24 06:04:42;;;;;;;4.00;1.23;;;15.40;84.80;;;;;;5056732;28;20072;-81
2021/06/24 06:07:08;;;;;;;2.95;1.20;;;15.40;84.20;;;;;;5057130;28;20045;-80
2021/06/24 06:09:35;;;;;;;3.08;1.10;;;15.50;83.60;;;;;;5056648;28;20049;-80
2021/06/24 06:12:06;;;;;;;4.05;1.80;;;15.30;83.70;;;;;;5056475;28;20061;-78
2021/06/24 06:14:35;;;;;;;;;;;15.40;83.90;;;;;;5057964;28;20075;-81
2021/06/24 06:17:02;;;;;;;4.07;1.55;;;15.30;84.10;;;;;;5059458;28;19921;-77
2021/06/24 06:19:28;;;;;;;3.47;1.27;;;15.30;84.60;;;;;;5060410;28;20049;-77
2021/06/24 06:21:54;;;;;;;6.30;1.80;;;15.50;84.60;;;;;;5059549;28;20422;-78
2021/06/24 06:24:20;;;;;;;5.30;1.40;;;15.60;84.80;;;;;;5058688;28;20056;-79
2021/06/24 06:26:47;;;;;;;5.95;1.70;;;15.70;84.80;;;;;;5058604;28;20045;-82
2021/06/24 06:29:13;;;;;;;4.88;1.30;;;15.50;84.30;;;;;;5058841;28;20047;-78
2021/06/24 06:31:39;;;;;;;4.55;1.27;;;15.60;84.70;;;;;;5058335;28;20426;-82
2021/06/24 06:34:07;;;;;;;4.18;1.40;;;15.60;84.30;;;;;;5058849;28;20055;-77
2021/06/24 06:36:34;;;;;;;4.85;1.30;;;15.60;84.30;;;;;;5058488;28;20045;-78
2021/06/24 06:39:01;;;;;;;4.07;0.95;;;15.70;84.00;;;;;;5057544;28;20056;-78
2021/06/24 06:41:28;;;;;;;4.00;1.10;;;15.80;83.90;;;;;;5058315;28;20148;-81
2021/06/24 06:43:55;;;;;;;6.75;1.13;;;15.90;83.10;;;;;;5058298;28;20323;-78
2021/06/24 06:46:21;;;;;;;6.78;1.38;;;16.00;83.70;;;;;;5059312;28;20449;-82
2021/06/24 06:48:47;;;;;;;3.10;1.10;;;16.00;83.20;;;;;;5056940;28;20057;-76
2021/06/24 06:51:14;;;;;;;4.03;1.02;;;16.00;82.90;;;;;;5057289;28;20338;-81
2021/06/24 06:53:40;;;;;;;5.80;1.20;;;16.10;81.80;;;;;;4981711;28;1983912;-82
2021/06/24 06:56:06;;;;;;;3.47;1.05;;;16.30;81.10;;;;;;5055267;28;20052;-81
2021/06/24 06:58:33;;;;;;;2.72;1.20;;;16.20;81.40;;;;;;5055352;28;20053;-82
2021/06/24 07:00:59;;;;;;;3.35;1.10;;;16.20;81.80;;;;;;5055832;28;20044;-78
2021/06/24 07:03:25;;;;;;;4.88;1.30;;;16.30;81.10;;;;;;5055360;28;20052;-79
2021/06/24 07:05:51;;;;;;;3.28;0.90;;;16.40;80.40;;;;;;5055060;28;20045;-76
2021/06/24 07:08:18;;;;;;;5.72;1.73;;;16.50;80.70;;;;;;5053285;28;20040;-80
2021/06/24 07:10:44;;;;;;;5.68;1.40;;;16.70;80.60;;;;;;5055097;28;20060;-80
2021/06/24 07:13:12;;;;;;;2.67;1.00;;;17.00;79.90;;;;;;5054938;28;20446;-82
2021/06/24 07:15:38;;;;;;;4.18;1.33;;;17.00;79.90;;;;;;5054193;28;20427;-80
2021/06/24 07:18:06;;;;;;;2.58;0.85;;;17.00;78.00;;;;;;5054587;28;20041;-81
2021/06/24 07:20:32;;;;;;;3.22;1.00;;;17.20;79.50;;;;;;5054831;28;20049;-80
2021/06/24 07:22:59;;;;;;;4.63;1.30;;;17.30;78.20;;;;;;5054506;28;20045;-80
2021/06/24 07:25:25;;;;;;;3.53;1.10;;;17.30;77.90;;;;;;5055254;28;20041;-79
2021/06/24 07:27:51;;;;;;;4.00;1.10;;;17.20;78.00;;;;;;5054150;28;20060;-76
2021/06/24 07:30:18;;;;;;;6.03;1.42;;;17.30;78.30;;;;;;5053752;28;20071;-80
2021/06/24 07:32:45;;;;;;;3.63;1.08;;;17.10;77.50;;;;;;5054775;28;20437;-82
2021/06/24 07:35:12;;;;;;;4.95;1.50;;;17.30;77.70;;;;;;5054361;28;20453;-80
2021/06/24 07:37:38;;;;;;;3.80;1.55;;;17.50;77.40;;;;;;5054712;28;20411;-81
2021/06/24 07:40:06;;;;;;;3.13;1.70;;;17.50;77.70;;;;;;5053757;28;20044;-79
2021/06/24 07:42:32;;;;;;;3.28;1.27;;;17.70;77.70;;;;;;5054183;28;20044;-78
2021/06/24 07:44:59;;;;;;;6.18;1.30;;;17.80;77.50;;;;;;5053005;28;20049;-78
2021/06/24 07:47:25;;;;;;;2.70;1.02;;;17.60;77.00;;;;;;5054718;28;20052;-79
2021/06/24 07:49:52;;;;;;;3.97;1.50;;;17.60;76.60;;;;;;5054700;28;20353;-80
2021/06/24 07:52:18;;;;;;;2.38;1.15;;;17.90;76.50;;;;;;5055076;28;20049;-83
2021/06/24 07:54:44;;;;;;;6.75;1.20;;;17.90;75.90;;;;;;5055155;28;20068;-79
2021/06/24 07:57:11;;;;;;;2.95;0.90;;;18.20;86.70;;;;;;5054998;28;20053;-81
2021/06/24 07:59:37;;;;;;;4.45;1.30;;;18.30;77.40;;;;;;5054837;28;20052;-80
2021/06/24 08:02:05;;;;;;;5.50;1.55;;;18.50;76.40;;;;;;5055364;28;20053;-81
2021/06/24 08:04:33;;;;;;;5.55;1.70;;;18.50;75.30;;;;;;5055390;28;20064;-78
2021/06/24 08:06:59;;;;;;;6.00;1.67;;;18.30;75.10;;;;;;5055096;28;20053;-77
2021/06/24 08:09:25;;;;;;;7.18;2.33;;;18.30;75.40;;;;;;5054845;28;20056;-75
2021/06/24 08:11:52;;;;;;;4.75;1.88;;;18.40;74.70;;;;;;5054122;28;20053;-77
2021/06/24 08:14:18;;;;;;;3.70;1.40;;;18.60;74.80;;;;;;5054364;28;20053;-77
2021/06/24 08:16:44;;;;;;;3.05;1.15;;;18.50;74.50;;;;;;5054945;28;20052;-73
2021/06/24 08:19:11;;;;;;;6.45;1.40;;;18.60;75.20;;;;;;5054281;28;20049;-81
2021/06/24 08:21:37;;;;;;;2.92;1.40;;;18.50;75.60;;;;;;5055085;28;20053;-78
2021/06/24 08:24:04;;;;;;;9.98;2.08;;;18.70;74.70;;;;;;5054290;28;20048;-75
2021/06/24 08:26:31;;;;;;;6.43;1.80;;;18.40;74.80;;;;;;5053735;28;20053;-81
2021/06/24 08:28:57;;;;;;;2.70;1.35;;;18.50;75.50;;;;;;5054907;28;20040;-77
2021/06/24 08:31:24;;;;;;;3.95;1.42;;;18.50;74.10;;;;;;5053110;28;20060;-77
2021/06/24 08:33:50;;;;;;;4.13;1.40;;;18.60;74.40;;;;;;5054818;28;20445;-81
2021/06/24 08:36:16;;;;;;;4.15;1.52;;;18.50;74.60;;;;;;5057015;28;20052;-80
2021/06/24 08:38:43;;;;;;;7.32;2.20;;;18.70;74.00;;;;;;5057962;28;20040;-84
2021/06/24 08:41:13;;;;;;;6.38;1.55;;;18.70;73.80;;;;;;5057183;28;20051;-86
2021/06/24 08:45:26;;;;;;;13.88;1.58;;;18.60;73.00;;;;;;5082143;27;211274;-82
2021/06/24 08:47:54;;;;;;;3.53;1.40;;;18.60;74.40;;;;;;5066424;28;184061;-79
2021/06/24 08:51:35;;;;;;;3.42;1.52;;;18.80;73.50;;;;;;5109793;27;20467;-81
2021/06/24 08:54:03;;;;;;;4.63;1.38;;;19.00;73.10;;;;;;5074643;28;20052;-84
2021/06/24 08:56:29;;;;;;;4.18;1.38;;;19.00;72.70;;;;;;5070737;28;20052;-82
2021/06/24 08:58:56;;;;;;;6.43;1.48;;;18.90;73.00;;;;;;5070880;28;20045;-81
2021/06/24 09:01:45;;;;;;;3.75;1.23;;;19.00;73.00;;;;;;5071417;28;20334;-80
2021/06/24 09:04:16;;;;;;;3.92;1.20;;;18.90;72.00;;;;;;5070020;28;20044;-80
2021/06/24 09:06:42;;;;;;;3.88;1.15;;;19.10;72.50;;;;;;5071474;28;20331;-81
2021/06/24 09:09:09;;;;;;;4.75;1.10;;;18.90;71.90;;;;;;5071604;28;20056;-83
2021/06/24 09:11:35;;;;;;;6.53;1.60;;;19.20;72.20;;;;;;5071266;28;20048;-81
2021/06/24 09:14:16;;;;;;;3.15;1.35;;;18.90;72.00;;;;;;5071119;28;20040;-82
2021/06/24 09:16:44;;;;;;;5.43;1.27;;;18.80;72.30;;;;;;5071388;28;20050;-79
2021/06/24 09:19:19;;;;;;;3.03;1.10;;;18.80;72.60;;;;;;5071813;28;20338;-82
2021/06/24 09:21:54;;;;;;;5.57;1.65;;;18.70;73.80;;;;;;5071413;28;20136;-80
2021/06/24 09:24:32;;;;;;;6.68;1.70;;;18.60;73.00;;;;;;5071063;28;20044;-81
2021/06/24 09:27:01;;;;;;;4.13;1.50;;;18.70;73.20;;;;;;5070084;28;20041;-78
2021/06/24 09:29:28;;;;;;;6.32;2.00;;;18.70;73.40;;;;;;5070711;28;20049;-78
2021/06/24 09:31:59;;;;;;;4.30;1.63;;;18.70;73.30;;;;;;5070641;28;20044;-81
2021/06/24 09:34:26;;;;;;;2.28;0.98;;;18.60;73.00;;;;;;5070272;28;20048;-81
2021/06/24 09:39:31;;;;;;;4.05;1.00;;;18.70;73.60;;;;;;5026602;28;20478;-78
2021/06/24 09:42:09;;;;;;;2.22;0.80;;;18.70;73.50;;;;;;5052046;28;20079;-79
2021/06/24 09:44:39;;;;;;;3.05;1.10;;;18.90;73.80;;;;;;5051564;28;20677;-77
2021/06/24 09:47:19;;;;;;;3.17;1.23;;;18.90;72.90;;;;;;5050940;28;20340;-80
2021/06/24 09:49:56;;;;;;;6.63;1.48;;;19.00;73.10;;;;;;5049895;28;20049;-81
2021/06/24 09:52:22;;;;;;;4.05;1.48;;;19.10;71.70;;;;;;5051208;28;20061;-78
2021/06/24 09:54:51;;;;;;;3.58;0.90;;;18.90;72.10;;;;;;5051235;28;20041;-77
2021/06/24 09:57:24;;;;;;;3.70;0.98;;;18.90;72.10;;;;;;5051182;28;20060;-79
2021/06/24 09:59:53;;;;;;;3.95;1.27;;;19.00;72.50;;;;;;5051249;28;20049;-78
2021/06/24 10:02:20;;;;;;;7.20;2.28;;;19.30;72.80;;;;;;5049767;28;20053;-78
2021/06/24 10:04:48;;;;;;;3.65;1.15;;;19.30;71.90;;;;;;5051448;28;20057;-79
2021/06/24 10:07:20;;;;;;;4.63;1.30;;;19.20;72.20;;;;;;5051287;28;20053;-81
2021/06/24 10:09:47;;;;;;;2.80;1.20;;;19.00;71.70;;;;;;5051395;28;20053;-78
2021/06/24 10:12:19;;;;;;;3.55;1.40;;;19.00;71.70;;;;;;5050651;28;20045;-78
2021/06/24 10:14:47;;;;;;;3.10;1.37;;;18.90;71.90;;;;;;5051059;28;20343;-80
2021/06/24 10:17:15;;;;;;;4.05;1.60;;;18.80;73.10;;;;;;5050396;28;20048;-78
2021/06/24 10:19:43;;;;;;;4.32;1.50;;;18.90;73.40;;;;;;5051121;28;20072;-77
2021/06/24 10:22:21;;;;;;;5.65;1.50;;;18.80;73.30;;;;;;5051136;28;20056;-79
2021/06/24 10:25:07;;;;;;;4.95;1.25;;;18.70;72.20;;;;;;5051190;28;20049;-78
2021/06/24 10:27:36;;;;;;;2.88;1.33;;;18.80;73.70;;;;;;5050787;28;20041;-80
2021/06/24 10:30:17;;;;;;;3.58;1.42;;;18.90;73.30;;;;;;5050993;28;20064;-79
2021/06/24 10:32:59;;;;;;;1.98;0.90;;;19.00;71.70;;;;;;5050574;28;20056;-80
2021/06/24 10:35:27;;;;;;;3.60;1.07;;;19.10;73.00;;;;;;5050823;28;20056;-79
2021/06/24 10:37:53;;;;;;;4.28;1.35;;;19.10;73.30;;;;;;5050716;28;20057;-80
2021/06/24 10:40:35;;;;;;;3.05;1.50;;;19.30;73.10;;;;;;5050446;28;20427;-77
2021/06/24 10:43:09;;;;;;;2.53;1.05;;;19.30;71.50;;;;;;5050512;28;20451;-77
2021/06/24 10:45:37;;;;;;;3.95;1.08;;;19.60;72.50;;;;;;5050628;28;20375;-81
2021/06/24 10:48:38;;;;;;;4.05;1.45;;;19.70;72.60;;;;;;5050325;28;20049;-80
2021/06/24 10:51:11;;;;;;;6.10;1.40;;;19.50;71.90;;;;;;4995769;28;20344;-80
2021/06/24 10:53:49;;;;;;;3.40;1.20;;;19.50;71.50;;;;;;4995484;28;20050;-80
2021/06/24 10:56:26;;;;;;;3.63;1.52;;;19.60;71.70;;;;;;4994603;28;20289;-79
2021/06/24 10:58:53;;;;;;;2.70;1.33;;;19.50;71.70;;;;;;4994727;28;20046;-80
2021/06/24 11:01:39;;;;;;;2.58;1.20;;;19.50;71.70;;;;;;4994792;28;20441;-80
2021/06/24 11:04:06;;;;;;;3.65;1.15;;;19.70;71.90;;;;;;4995304;28;20046;-78
2021/06/24 11:06:50;;;;;;;2.60;1.33;;;19.60;71.00;;;;;;4994862;28;20061;-81
2021/06/24 11:09:17;;;;;;;;;;;19.60;70.90;;;;;;4995062;28;20058;-78
2021/06/24 11:11:44;;;;;;;2.63;1.60;;;19.70;71.80;;;;;;4994928;28;19917;-79
2021/06/24 11:14:14;;;;;;;6.18;1.95;;;19.60;71.50;;;;;;4994474;28;20061;-78
2021/06/24 11:16:42;;;;;;;4.68;1.60;;;19.70;71.10;;;;;;4994946;28;20058;-79
2021/06/24 11:19:11;;;;;;;4.10;1.20;;;19.80;71.70;;;;;;4994330;28;20054;-77
2021/06/24 11:21:37;;;;;;;5.03;1.52;;;20.00;71.50;;;;;;4994542;28;20067;-78
2021/06/24 11:24:07;;;;;;;4.60;1.50;;;20.00;70.30;;;;;;4997290;28;20066;-78
2021/06/24 11:26:41;;;;;;;3.05;1.45;;;19.90;69.70;;;;;;5036936;28;20431;-81
2021/06/24 11:29:23;;;;;;;5.45;2.03;;;19.90;70.10;;;;;;5036419;28;20060;-79
2021/06/24 11:35:14;;;;;;;4.35;1.60;;;19.90;71.30;;;;;;4994967;28;20054;-80
2021/06/24 11:37:40;;;;;;;2.35;1.55;;;19.90;70.90;;;;;;4994164;28;20065;-78
2021/06/24 11:40:09;;;;;;;5.07;1.50;;;20.00;70.10;;;;;;4994222;28;20058;-78
2021/06/24 11:42:40;;;;;;;3.58;1.25;;;19.70;69.70;;;;;;4994677;28;20050;-78
2021/06/24 11:45:10;;;;;;;3.83;1.80;;;19.80;70.30;;;;;;4994551;28;20057;-79
2021/06/24 11:47:38;;;;;;;6.40;1.77;;;19.70;68.90;;;;;;4994160;28;20463;-79
2021/06/24 12:04:21;;;;;;;2.70;1.20;;;20.30;68.00;;;;;;4994586;28;20046;-80
2021/06/24 12:06:59;;;;;;;2.72;1.33;;;20.60;68.20;;;;;;5030956;28;20045;-77
2021/06/24 12:09:37;;;;;;;4.13;1.00;;;20.70;67.50;;;;;;5035405;28;20049;-79
2021/06/24 12:12:04;;;;;;;4.90;1.58;;;21.10;68.30;;;;;;5035289;28;20053;-79
2021/06/24 12:14:33;;;;;;;2.72;1.30;;;21.30;67.80;;;;;;5035411;28;20053;-79
2021/06/24 12:17:08;;;;;;;4.75;2.00;;;21.60;67.10;;;;;;5035279;28;20056;-83
2021/06/24 12:20:12;;;;;;;4.32;2.10;;;21.10;63.70;;;;;;5035899;28;20057;-79
2021/06/24 12:22:48;;;;;;;4.93;2.30;;;20.70;64.60;;;;;;5034803;28;20084;-78
2021/06/24 12:25:22;;;;;;;3.17;1.67;;;20.80;66.90;;;;;;5035370;28;20339;-80
2021/06/24 12:28:03;;;;;;;5.13;2.15;;;21.00;67.70;;;;;;5035137;28;20072;-78
2021/06/24 12:30:43;;;;;;;8.00;2.22;;;20.70;65.80;;;;;;5035641;28;20064;-78
2021/06/24 12:33:12;;;;;;;6.60;1.50;;;20.40;67.90;;;;;;5035082;28;20050;-80
2021/06/24 12:35:47;;;;;;;3.97;1.63;;;20.60;69.50;;;;;;5035338;28;20049;-79
2021/06/24 12:38:20;;;;;;;8.57;2.28;;;20.50;67.80;;;;;;5034777;28;20061;-78
2021/06/24 12:40:50;;;;;;;3.83;1.60;;;20.50;69.30;;;;;;5034544;28;20060;-77
2021/06/24 12:43:20;;;;;;;4.28;2.10;;;20.50;69.60;;;;;;5034827;28;20053;-79
2021/06/24 12:45:52;;;;;;;3.42;1.85;;;20.60;68.80;;;;;;5034488;28;20347;-79
2021/06/24 12:48:38;;;;;;;2.67;1.40;;;20.50;67.50;;;;;;5033003;28;20049;-79
2021/06/24 12:51:22;;;;;;;3.67;1.65;;;20.40;67.30;;;;;;5034430;28;20431;-78
2021/06/24 12:53:53;;;;;;;5.00;2.33;;;20.40;67.00;;;;;;5034159;28;20343;-79
2021/06/24 12:56:22;;;;;;;5.13;2.35;;;20.40;67.10;;;;;;5034617;28;20442;-80
2021/06/24 12:58:49;;;;;;;3.97;2.08;;;20.50;66.70;;;;;;5035034;28;20056;-79
2021/06/24 13:01:22;;;;;;;3.90;1.98;;;20.50;67.10;;;;;;5034496;28;20061;-80
2021/06/24 13:03:52;;;;;;;3.97;2.00;;;20.60;67.40;;;;;;5034591;28;20053;-80
2021/06/24 13:06:31;;;;;;;3.92;1.83;;;20.60;67.00;;;;;;5034303;28;20443;-80
2021/06/24 13:09:08;;;;;;;5.35;1.98;;;20.80;67.30;;;;;;5034272;28;20069;-79
2021/06/24 13:11:44;;;;;;;3.40;2.25;;;20.70;66.90;;;;;;5034345;28;20045;-80
2021/06/24 13:14:21;;;;;;;2.70;1.70;;;20.60;67.40;;;;;;5034275;28;20057;-77
2021/06/24 13:16:47;;;;;;;3.92;1.80;;;20.70;68.60;;;;;;5034247;28;20056;-77
2021/06/24 13:19:25;;;;;;;4.03;2.05;;;20.60;68.40;;;;;;5034573;28;20053;-79